메인 페이지
METAR-TAF:

METAR-TAF

공항 :

오클라호마시티, 오클라호마, 미국

위도: 35-23-19N, 경도: 097-36-01W, 고도: 394m

현재 날씨관측

예보는 31분 전, 11:52시(UTC)에 발표되었습니다.
무풍
온도 -6°C
습도 100%
기압 1022 hPa
시정: 12.9km
맑음

METAR: KOKC 191152Z 00000KT 8SM CLR M06/M06 A3018 RMK AO2 SLP232 T10561061 11017 21061 56006

시각: 06:23 (12:23 UTC)

예보

예보는 1 시간 3분 전, 11:20시(UTC)에 발표되었습니다.
예보 대상 시간: 19일 12시부터 20일 12시까지 (UTC)
서남서7kt
시정: 10km
맑음
19일 2300시부터 (UTC)
북북서11kt
시정: 10km
고도 25000ft 상공 구름 조금

TAF: KOKC 191120Z 1912/2012 25007KT P6SM SKC FM192300 34011KT P6SM FEW250

4,000개 이상의 공항 관측 자료 및 예보 (METAR 및 TAF 보고).

지도상에서 검색 가능한 기상관측소가 노란 점과 빨간 점으로 표시되어 있습니다.

기상관측소 명을 보려면 표시 위로 마우스를 이동하세요.

날씨 관측과 예보를 보려면 클릭하세요.

지도 변경 : 확대하려면 엑스 표시가 있는 녹색 버튼, 축소하려면 빼기 표시가 있는 녹색 버튼, 다음 페이지의 지도를 보려면 녹색 화살표를 클릭하세요.


METAR-TAF: